North Palm Beach, FL (33408)

1:04 PM EDT on July 02, 2015 (GMT -0400)
onSpot wifi - Bluffs Marina | | Change Station
CLOSE
Current Station
Personal Weather Station
Location: Jupiter, FL
Elevation: 16 ft
Nearby Weather Stations

Elev 16 ft 26.89 °N, 80.07 °W | Updated 30 seconds ago

Mostly Cloudy
Mostly Cloudy
86.4 °F
Feels Like 98 °F
N
8.1
Wind Variable Wind from SE
Gusts 13.0 mph

Today
High -- | Low -- °F
--% Chance of Precip.
Yesterday
High -- | Low -- °F
Precip. -- in
6:30 AM 8:18 PM
Full, 100% visible
Pressure 30.14 in
Visibility 10.0 miles
Clouds Scattered Clouds 3200 ft
Mostly Cloudy 22000 ft
Heat Index 98 °F
Dew Point 78 °F
Humidity 75%
Rainfall 0.00 in
Snow Depth Not available.
UV 8 out of 12
Pollen 4.20 out of 12
Air Quality Not available.
Flu Activity Not available.
METAR KPBI 021653Z 12010KT 10SM SCT032 BKN220 31/23 A3013 RMK AO2 SLP204 T03110233 $

More Conditions Fewer Conditions

Pressure 30.14 in
Visibility 10.0 miles
Clouds Scattered Clouds 3200 ft
Mostly Cloudy 22000 ft
Heat Index 98 °F
Dew Point 78 °F
Humidity 75%
Rainfall 0.00 in
Snow Depth Not available.
UV 8 out of 12
Pollen 4.20 out of 12
Air Quality Not available.
Flu Activity Not available.
METAR KPBI 021653Z 12010KT 10SM SCT032 BKN220 31/23 A3013 RMK AO2 SLP204 T03110233 $

More Conditions Fewer Conditions

10-Day Weather Forecast

×

Almanac

Astronomy

Jul. 02, 2015 Rise Set
Actual Time
Civil Twilight
Nautical Twilight
Astronomical Twilight
Moon
Length of Visible Light
Length of Day
Tomorrow will be .
, % of the Moon is Illuminated

Today's Extremes

State Highs State Lows

Community

WunderPhotos

Upload Photos

1,834,501 photos uploaded!

WunderBlogs® & News

Nearby

Air Quality

  Air Quality AQ Index Pollutant
Not available.

Snow Depth

Station Depth Elevation

Earthquake Activity

City Distance Mag. Time & Date
Minimum magnitude displayed is 2.5.

Coastal Water Temperatures

Place Temperature

Stations

Nearby Weather Stations

Station Location Temp. Windchill Dew Point Humidity Wind Precip. Elev Updated Type